x

Lahaina / West Maui Weather Station

10:11am - Sat 23rd Jul 2016 All times are HST. -10 hours from GMT.

  • Wind
    25mph, 37mph gusts
  • Air Temp 75°f
  • Sea Pressure 1012.9mb
  • Lahaina / West Maui
  • Lahaina / West Maui

More Historic Weather Station data

Upgrade to MSW Pro to gain access to the past 30 days of data for over 8000 Wavebouys and Weather Stations around the globe.

Join Pro

Comparision Forecast

View Surf forecast
   
Sat 07/23 10:11am 25 37 mph 1012.9mb 75f
9:45am 21 33 mph 1013.5mb 75f
8:45am 16 29 mph 1013.2mb 75f
7:45am 21 32 mph 1013.2mb 73f
7:13am 18 33 mph 1012.9mb 73f
6:45am 15 28 mph 1013.2mb 75f
6:00am 14 27 mph 1012.9mb 75f
Fri 07/22 5:50pm 23 35 mph 1014.2mb 77f
4:50pm 21 35 mph 1013.5mb 81f
3:45pm 20 30 mph 1014.6mb 79f
2:50pm 22 31 mph 1014.9mb 79f
1:45pm 16 29 mph 1015.2mb 81f
12:45pm 18 29 mph 1015.6mb 84f
11:45am 21 29 mph 1015.6mb 84f
10:50am 20 28 mph 1015.9mb 81f
9:45am 20 29 mph 1015.9mb 75f
8:50am 21 29 mph 1015.9mb 75f
7:45am 20 30 mph 1015.6mb 75f
6:45am 21 28 mph 1015.2mb 75f
6:00am 22 29 mph 1014.9mb 73f
Thu 07/21 5:45pm 12 23 mph 1015.9mb 79f
4:45pm 16 22 mph 1015.9mb 77f
3:45pm 15 25 mph 1015.9mb 81f
2:59pm 17 27 mph 1016.3mb 81f
12:45pm 20 25 mph 1016.9mb 84f
11:45am 16 23 mph 1016.9mb 84f
10:45am 15 23 mph 1017.6mb 82f
9:45am 21 29 mph 1017.6mb 81f
8:45am 14 27 mph 1017.6mb 81f
7:45am 6 17 mph 1017.6mb 75f
6:45am 12 21 mph 1016.9mb 73f
6:00am 17 22 mph 1016.3mb 73f
Wed 07/20 5:45pm 18 25 mph 1016.9mb 81f
4:45pm  -  22 mph 1017.3mb 81f
3:45pm 18 25 mph 1017.3mb 81f
2:45pm 20 28 mph 1016.9mb 84f
1:45pm 18 24 mph 1017.3mb 84f
12:45pm 20 27 mph 1017.6mb 88f
11:50am 18 25 mph 1018mb 90f
10:50am 17
mph
1018mb 88f
9:50am 14
mph
1018mb 86f
8:50am 17
mph
1018.3mb 84f
7:50am 14
mph
1018mb 81f
6:50am 14
mph
1017.6mb 77f
6:04am 14
mph
1016.9mb 75f